sensor_id;sensor_type;location;lat;lon;timestamp;P1;durP1;ratioP1;P2;durP2;ratioP2
69334;SDS011;56477;52.742;15.242;2023-02-12T00:00:01;15.52;;;4.13;;
69334;SDS011;56477;52.742;15.242;2023-02-12T00:02:29;17.07;;;4.10;;
69334;SDS011;56477;52.742;15.242;2023-02-12T00:04:55;19.77;;;4.72;;
69334;SDS011;56477;52.742;15.242;2023-02-12T00:07:21;17.42;;;4.10;;
69334;SDS011;56477;52.742;15.242;2023-02-12T00:09:47;18.00;;;3.83;;
69334;SDS011;56477;52.742;15.242;2023-02-12T00:12:13;18.43;;;4.27;;
69334;SDS011;56477;52.742;15.242;2023-02-12T00:14:39;20.50;;;4.20;;
69334;SDS011;56477;52.742;15.242;2023-02-12T00:17:05;21.33;;;4.53;;
69334;SDS011;56477;52.742;15.242;2023-02-12T00:19:31;13.57;;;4.43;;
69334;SDS011;56477;52.742;15.242;2023-02-12T00:21:57;21.02;;;4.38;;
69334;SDS011;56477;52.742;15.242;2023-02-12T00:24:23;17.35;;;4.15;;
69334;SDS011;56477;52.742;15.242;2023-02-12T00:26:49;17.90;;;4.55;;
69334;SDS011;56477;52.742;15.242;2023-02-12T00:29:16;19.77;;;3.67;;
69334;SDS011;56477;52.742;15.242;2023-02-12T00:31:41;21.45;;;4.88;;
69334;SDS011;56477;52.742;15.242;2023-02-12T00:34:08;23.08;;;4.95;;
69334;SDS011;56477;52.742;15.242;2023-02-12T00:36:35;24.38;;;4.30;;
69334;SDS011;56477;52.742;15.242;2023-02-12T00:39:02;16.70;;;4.10;;
69334;SDS011;56477;52.742;15.242;2023-02-12T00:41:28;16.07;;;3.97;;
69334;SDS011;56477;52.742;15.242;2023-02-12T00:43:55;23.55;;;4.28;;
69334;SDS011;56477;52.742;15.242;2023-02-12T00:46:21;19.35;;;4.20;;
69334;SDS011;56477;52.742;15.242;2023-02-12T00:48:47;19.90;;;4.38;;
69334;SDS011;56477;52.742;15.242;2023-02-12T00:51:13;17.93;;;4.17;;
69334;SDS011;56477;52.742;15.242;2023-02-12T00:53:40;23.30;;;4.77;;
69334;SDS011;56477;52.742;15.242;2023-02-12T00:56:06;17.75;;;4.25;;
69334;SDS011;56477;52.742;15.242;2023-02-12T00:58:32;24.23;;;4.20;;
69334;SDS011;56477;52.742;15.242;2023-02-12T01:00:58;20.63;;;4.40;;
69334;SDS011;56477;52.742;15.242;2023-02-12T01:03:24;16.67;;;3.80;;
69334;SDS011;56477;52.742;15.242;2023-02-12T01:05:50;23.38;;;4.97;;
69334;SDS011;56477;52.742;15.242;2023-02-12T01:08:17;18.33;;;3.15;;
69334;SDS011;56477;52.742;15.242;2023-02-12T01:10:43;16.33;;;3.42;;
69334;SDS011;56477;52.742;15.242;2023-02-12T01:13:13;18.23;;;3.43;;
69334;SDS011;56477;52.742;15.242;2023-02-12T01:15:40;20.27;;;4.07;;
69334;SDS011;56477;52.742;15.242;2023-02-12T01:18:07;17.45;;;3.60;;
69334;SDS011;56477;52.742;15.242;2023-02-12T01:20:32;21.25;;;3.70;;
69334;SDS011;56477;52.742;15.242;2023-02-12T01:22:59;14.20;;;3.23;;
69334;SDS011;56477;52.742;15.242;2023-02-12T01:25:26;17.15;;;3.28;;
69334;SDS011;56477;52.742;15.242;2023-02-12T01:27:52;16.83;;;3.00;;
69334;SDS011;56477;52.742;15.242;2023-02-12T01:30:18;21.17;;;4.40;;
69334;SDS011;56477;52.742;15.242;2023-02-12T01:32:47;21.52;;;3.90;;
69334;SDS011;56477;52.742;15.242;2023-02-12T01:35:13;25.57;;;4.50;;
69334;SDS011;56477;52.742;15.242;2023-02-12T01:37:40;20.40;;;3.63;;
69334;SDS011;56477;52.742;15.242;2023-02-12T01:40:06;15.70;;;3.95;;
69334;SDS011;56477;52.742;15.242;2023-02-12T01:42:33;16.40;;;2.80;;
69334;SDS011;56477;52.742;15.242;2023-02-12T01:47:38;18.65;;;3.95;;
69334;SDS011;56477;52.742;15.242;2023-02-12T01:50:05;19.13;;;3.72;;
69334;SDS011;56477;52.742;15.242;2023-02-12T01:52:33;20.13;;;3.65;;
69334;SDS011;56477;52.742;15.242;2023-02-12T01:55:03;16.60;;;2.93;;
69334;SDS011;56477;52.742;15.242;2023-02-12T01:57:33;21.60;;;3.25;;
69334;SDS011;56477;52.742;15.242;2023-02-12T02:00:04;16.67;;;3.63;;
69334;SDS011;56477;52.742;15.242;2023-02-12T02:02:33;15.77;;;2.92;;
69334;SDS011;56477;52.742;15.242;2023-02-12T02:05:00;22.30;;;3.60;;
69334;SDS011;56477;52.742;15.242;2023-02-12T02:07:28;19.93;;;3.40;;
69334;SDS011;56477;52.742;15.242;2023-02-12T02:09:55;24.63;;;3.65;;
69334;SDS011;56477;52.742;15.242;2023-02-12T02:12:23;16.42;;;4.00;;
69334;SDS011;56477;52.742;15.242;2023-02-12T02:15:09;14.52;;;2.58;;
69334;SDS011;56477;52.742;15.242;2023-02-12T02:31:20;18.90;;;3.58;;
69334;SDS011;56477;52.742;15.242;2023-02-12T02:36:34;16.50;;;3.05;;
69334;SDS011;56477;52.742;15.242;2023-02-12T02:39:11;21.90;;;3.50;;
69334;SDS011;56477;52.742;15.242;2023-02-12T02:41:58;16.20;;;3.85;;
69334;SDS011;56477;52.742;15.242;2023-02-12T02:44:35;17.02;;;3.65;;
69334;SDS011;56477;52.742;15.242;2023-02-12T02:47:07;19.63;;;2.93;;
69334;SDS011;56477;52.742;15.242;2023-02-12T02:49:42;16.58;;;2.88;;
69334;SDS011;56477;52.742;15.242;2023-02-12T02:52:33;18.90;;;3.92;;
69334;SDS011;56477;52.742;15.242;2023-02-12T02:55:04;22.90;;;3.85;;
69334;SDS011;56477;52.742;15.242;2023-02-12T02:57:46;15.52;;;3.47;;
69334;SDS011;56477;52.742;15.242;2023-02-12T03:00:19;20.10;;;3.53;;
69334;SDS011;56477;52.742;15.242;2023-02-12T03:02:51;14.77;;;3.10;;
69334;SDS011;56477;52.742;15.242;2023-02-12T03:05:24;19.65;;;3.63;;
69334;SDS011;56477;52.742;15.242;2023-02-12T03:07:56;22.38;;;3.90;;
69334;SDS011;56477;52.742;15.242;2023-02-12T03:10:50;19.90;;;3.28;;
69334;SDS011;56477;52.742;15.242;2023-02-12T03:13:32;18.93;;;3.60;;
69334;SDS011;56477;52.742;15.242;2023-02-12T03:16:20;18.17;;;2.75;;
69334;SDS011;56477;52.742;15.242;2023-02-12T03:18:54;16.88;;;3.67;;
69334;SDS011;56477;52.742;15.242;2023-02-12T03:21:35;20.20;;;3.33;;
69334;SDS011;56477;52.742;15.242;2023-02-12T03:24:09;12.65;;;3.15;;
69334;SDS011;56477;52.742;15.242;2023-02-12T03:27:02;20.63;;;3.47;;
69334;SDS011;56477;52.742;15.242;2023-02-12T03:29:52;19.38;;;4.60;;
69334;SDS011;56477;52.742;15.242;2023-02-12T03:32:29;24.63;;;4.45;;
69334;SDS011;56477;52.742;15.242;2023-02-12T03:35:07;21.73;;;3.30;;
69334;SDS011;56477;52.742;15.242;2023-02-12T03:38:15;26.73;;;3.85;;
69334;SDS011;56477;52.742;15.242;2023-02-12T03:40:55;19.07;;;3.53;;
69334;SDS011;56477;52.742;15.242;2023-02-12T03:43:53;14.77;;;2.72;;
69334;SDS011;56477;52.742;15.242;2023-02-12T03:49:16;19.23;;;3.60;;
69334;SDS011;56477;52.742;15.242;2023-02-12T03:51:45;24.15;;;4.63;;
69334;SDS011;56477;52.742;15.242;2023-02-12T03:57:02;22.85;;;3.28;;
69334;SDS011;56477;52.742;15.242;2023-02-12T03:59:32;24.55;;;3.97;;
69334;SDS011;56477;52.742;15.242;2023-02-12T04:02:00;29.33;;;4.00;;
69334;SDS011;56477;52.742;15.242;2023-02-12T04:04:27;21.95;;;4.93;;
69334;SDS011;56477;52.742;15.242;2023-02-12T04:06:53;22.87;;;3.97;;
69334;SDS011;56477;52.742;15.242;2023-02-12T04:09:21;25.30;;;3.72;;
69334;SDS011;56477;52.742;15.242;2023-02-12T04:34:04;17.27;;;3.40;;
69334;SDS011;56477;52.742;15.242;2023-02-12T04:37:16;35.40;;;4.78;;
69334;SDS011;56477;52.742;15.242;2023-02-12T04:39:39;25.13;;;4.05;;
69334;SDS011;56477;52.742;15.242;2023-02-12T04:42:07;20.90;;;3.90;;
69334;SDS011;56477;52.742;15.242;2023-02-12T04:44:33;28.52;;;4.32;;
69334;SDS011;56477;52.742;15.242;2023-02-12T04:47:02;25.77;;;4.93;;
69334;SDS011;56477;52.742;15.242;2023-02-12T04:49:28;26.55;;;4.43;;
69334;SDS011;56477;52.742;15.242;2023-02-12T04:51:55;24.42;;;5.35;;
69334;SDS011;56477;52.742;15.242;2023-02-12T04:54:22;31.33;;;5.40;;
69334;SDS011;56477;52.742;15.242;2023-02-12T04:56:48;27.77;;;4.88;;
69334;SDS011;56477;52.742;15.242;2023-02-12T04:59:15;30.93;;;5.67;;
69334;SDS011;56477;52.742;15.242;2023-02-12T05:01:42;30.13;;;6.03;;
69334;SDS011;56477;52.742;15.242;2023-02-12T05:04:11;33.97;;;6.50;;
69334;SDS011;56477;52.742;15.242;2023-02-12T05:06:39;24.52;;;5.63;;
69334;SDS011;56477;52.742;15.242;2023-02-12T05:09:06;28.13;;;5.03;;
69334;SDS011;56477;52.742;15.242;2023-02-12T05:11:32;26.77;;;6.30;;
69334;SDS011;56477;52.742;15.242;2023-02-12T05:13:58;27.17;;;5.75;;
69334;SDS011;56477;52.742;15.242;2023-02-12T05:16:25;37.00;;;5.97;;
69334;SDS011;56477;52.742;15.242;2023-02-12T05:18:50;34.97;;;6.83;;
69334;SDS011;56477;52.742;15.242;2023-02-12T05:21:17;35.97;;;6.60;;
69334;SDS011;56477;52.742;15.242;2023-02-12T05:23:42;35.00;;;6.53;;
69334;SDS011;56477;52.742;15.242;2023-02-12T05:26:13;31.20;;;6.13;;
69334;SDS011;56477;52.742;15.242;2023-02-12T05:28:41;39.85;;;6.45;;
69334;SDS011;56477;52.742;15.242;2023-02-12T05:31:13;30.23;;;6.90;;
69334;SDS011;56477;52.742;15.242;2023-02-12T05:33:44;31.30;;;6.70;;
69334;SDS011;56477;52.742;15.242;2023-02-12T05:36:13;30.35;;;6.85;;
69334;SDS011;56477;52.742;15.242;2023-02-12T05:38:40;29.33;;;6.80;;
69334;SDS011;56477;52.742;15.242;2023-02-12T05:41:07;34.80;;;6.70;;
69334;SDS011;56477;52.742;15.242;2023-02-12T05:43:39;36.70;;;6.70;;
69334;SDS011;56477;52.742;15.242;2023-02-12T05:46:05;38.22;;;7.18;;
69334;SDS011;56477;52.742;15.242;2023-02-12T05:48:33;30.65;;;6.75;;
69334;SDS011;56477;52.742;15.242;2023-02-12T05:51:00;32.00;;;6.68;;
69334;SDS011;56477;52.742;15.242;2023-02-12T05:53:28;37.53;;;6.85;;
69334;SDS011;56477;52.742;15.242;2023-02-12T05:55:54;42.30;;;7.20;;
69334;SDS011;56477;52.742;15.242;2023-02-12T05:58:20;48.88;;;8.52;;
69334;SDS011;56477;52.742;15.242;2023-02-12T06:00:46;38.85;;;7.63;;
69334;SDS011;56477;52.742;15.242;2023-02-12T06:03:12;43.07;;;7.33;;
69334;SDS011;56477;52.742;15.242;2023-02-12T06:05:38;32.90;;;7.10;;
69334;SDS011;56477;52.742;15.242;2023-02-12T06:08:03;43.03;;;7.18;;
69334;SDS011;56477;52.742;15.242;2023-02-12T06:10:30;36.00;;;7.85;;
69334;SDS011;56477;52.742;15.242;2023-02-12T06:12:55;32.27;;;7.30;;
69334;SDS011;56477;52.742;15.242;2023-02-12T06:15:22;42.30;;;8.27;;
69334;SDS011;56477;52.742;15.242;2023-02-12T06:17:47;47.75;;;9.90;;
69334;SDS011;56477;52.742;15.242;2023-02-12T06:20:14;40.95;;;8.93;;
69334;SDS011;56477;52.742;15.242;2023-02-12T06:22:39;42.67;;;8.40;;
69334;SDS011;56477;52.742;15.242;2023-02-12T06:25:06;40.72;;;7.05;;
69334;SDS011;56477;52.742;15.242;2023-02-12T06:27:32;50.15;;;8.52;;
69334;SDS011;56477;52.742;15.242;2023-02-12T06:29:58;39.42;;;8.90;;
69334;SDS011;56477;52.742;15.242;2023-02-12T06:32:24;47.90;;;9.33;;
69334;SDS011;56477;52.742;15.242;2023-02-12T06:34:50;52.92;;;9.73;;
69334;SDS011;56477;52.742;15.242;2023-02-12T06:37:16;45.70;;;8.95;;
69334;SDS011;56477;52.742;15.242;2023-02-12T06:39:42;39.47;;;10.35;;
69334;SDS011;56477;52.742;15.242;2023-02-12T06:42:08;47.27;;;10.10;;
69334;SDS011;56477;52.742;15.242;2023-02-12T06:44:34;54.17;;;10.65;;
69334;SDS011;56477;52.742;15.242;2023-02-12T06:47:00;49.72;;;10.35;;
69334;SDS011;56477;52.742;15.242;2023-02-12T06:49:26;41.97;;;9.07;;
69334;SDS011;56477;52.742;15.242;2023-02-12T06:51:52;45.75;;;8.73;;
69334;SDS011;56477;52.742;15.242;2023-02-12T06:54:18;42.58;;;7.55;;
69334;SDS011;56477;52.742;15.242;2023-02-12T06:56:44;44.60;;;8.55;;
69334;SDS011;56477;52.742;15.242;2023-02-12T06:59:11;43.03;;;7.33;;
69334;SDS011;56477;52.742;15.242;2023-02-12T07:01:42;41.72;;;8.65;;
69334;SDS011;56477;52.742;15.242;2023-02-12T07:04:09;42.00;;;9.35;;
69334;SDS011;56477;52.742;15.242;2023-02-12T07:06:35;40.47;;;9.07;;
69334;SDS011;56477;52.742;15.242;2023-02-12T07:09:03;35.05;;;9.63;;
69334;SDS011;56477;52.742;15.242;2023-02-12T07:11:31;41.23;;;8.57;;
69334;SDS011;56477;52.742;15.242;2023-02-12T07:13:58;39.92;;;8.05;;
69334;SDS011;56477;52.742;15.242;2023-02-12T07:16:24;40.25;;;8.27;;
69334;SDS011;56477;52.742;15.242;2023-02-12T07:18:51;30.58;;;7.00;;
69334;SDS011;56477;52.742;15.242;2023-02-12T07:21:17;43.37;;;8.43;;
69334;SDS011;56477;52.742;15.242;2023-02-12T07:23:50;39.58;;;8.40;;
69334;SDS011;56477;52.742;15.242;2023-02-12T07:26:17;36.67;;;7.13;;
69334;SDS011;56477;52.742;15.242;2023-02-12T07:28:44;39.30;;;7.40;;
69334;SDS011;56477;52.742;15.242;2023-02-12T07:31:22;40.67;;;7.73;;
69334;SDS011;56477;52.742;15.242;2023-02-12T07:33:52;34.13;;;7.30;;
69334;SDS011;56477;52.742;15.242;2023-02-12T07:36:19;37.13;;;7.38;;
69334;SDS011;56477;52.742;15.242;2023-02-12T07:38:45;33.92;;;6.93;;
69334;SDS011;56477;52.742;15.242;2023-02-12T07:43:48;50.70;;;7.77;;
69334;SDS011;56477;52.742;15.242;2023-02-12T07:46:20;35.17;;;7.78;;
69334;SDS011;56477;52.742;15.242;2023-02-12T07:48:49;37.00;;;7.18;;
69334;SDS011;56477;52.742;15.242;2023-02-12T07:51:16;35.80;;;6.75;;
69334;SDS011;56477;52.742;15.242;2023-02-12T07:53:46;30.85;;;7.57;;
69334;SDS011;56477;52.742;15.242;2023-02-12T07:56:14;41.67;;;7.67;;
69334;SDS011;56477;52.742;15.242;2023-02-12T07:58:49;46.78;;;8.25;;
69334;SDS011;56477;52.742;15.242;2023-02-12T08:01:21;32.03;;;6.47;;
69334;SDS011;56477;52.742;15.242;2023-02-12T08:03:49;34.90;;;8.25;;
69334;SDS011;56477;52.742;15.242;2023-02-12T08:06:17;49.25;;;8.63;;
69334;SDS011;56477;52.742;15.242;2023-02-12T08:08:51;35.37;;;8.40;;
69334;SDS011;56477;52.742;15.242;2023-02-12T08:11:18;39.30;;;8.90;;
69334;SDS011;56477;52.742;15.242;2023-02-12T08:13:45;38.20;;;8.10;;
69334;SDS011;56477;52.742;15.242;2023-02-12T08:16:12;38.67;;;8.68;;
69334;SDS011;56477;52.742;15.242;2023-02-12T08:18:40;41.17;;;9.10;;
69334;SDS011;56477;52.742;15.242;2023-02-12T08:21:13;38.63;;;10.03;;
69334;SDS011;56477;52.742;15.242;2023-02-12T08:23:47;31.67;;;7.22;;
69334;SDS011;56477;52.742;15.242;2023-02-12T08:28:45;30.70;;;6.28;;
69334;SDS011;56477;52.742;15.242;2023-02-12T08:31:16;31.15;;;6.85;;
69334;SDS011;56477;52.742;15.242;2023-02-12T08:33:45;36.17;;;8.27;;
69334;SDS011;56477;52.742;15.242;2023-02-12T08:36:13;35.10;;;6.20;;
69334;SDS011;56477;52.742;15.242;2023-02-12T08:38:42;21.55;;;6.20;;
69334;SDS011;56477;52.742;15.242;2023-02-12T08:41:10;32.60;;;7.95;;
69334;SDS011;56477;52.742;15.242;2023-02-12T08:43:38;52.00;;;12.07;;
69334;SDS011;56477;52.742;15.242;2023-02-12T08:46:09;48.30;;;11.40;;
69334;SDS011;56477;52.742;15.242;2023-02-12T08:48:37;40.30;;;8.00;;
69334;SDS011;56477;52.742;15.242;2023-02-12T08:53:34;34.78;;;8.65;;
69334;SDS011;56477;52.742;15.242;2023-02-12T08:56:00;37.03;;;7.93;;
69334;SDS011;56477;52.742;15.242;2023-02-12T08:58:27;39.60;;;9.80;;
69334;SDS011;56477;52.742;15.242;2023-02-12T09:00:53;33.60;;;9.73;;
69334;SDS011;56477;52.742;15.242;2023-02-12T09:03:19;42.58;;;10.35;;
69334;SDS011;56477;52.742;15.242;2023-02-12T09:05:45;35.72;;;8.52;;
69334;SDS011;56477;52.742;15.242;2023-02-12T09:08:11;34.00;;;12.27;;
69334;SDS011;56477;52.742;15.242;2023-02-12T09:10:38;44.15;;;13.88;;
69334;SDS011;56477;52.742;15.242;2023-02-12T09:13:06;42.72;;;13.23;;
69334;SDS011;56477;52.742;15.242;2023-02-12T09:15:38;45.03;;;11.90;;
69334;SDS011;56477;52.742;15.242;2023-02-12T09:18:07;32.72;;;10.35;;
69334;SDS011;56477;52.742;15.242;2023-02-12T09:20:35;40.03;;;13.00;;
69334;SDS011;56477;52.742;15.242;2023-02-12T09:23:05;37.13;;;11.52;;
69334;SDS011;56477;52.742;15.242;2023-02-12T09:25:31;37.22;;;12.15;;
69334;SDS011;56477;52.742;15.242;2023-02-12T09:28:01;42.92;;;11.95;;
69334;SDS011;56477;52.742;15.242;2023-02-12T09:30:27;31.67;;;10.77;;
69334;SDS011;56477;52.742;15.242;2023-02-12T09:32:53;38.30;;;12.37;;
69334;SDS011;56477;52.742;15.242;2023-02-12T09:35:20;35.30;;;9.85;;
69334;SDS011;56477;52.742;15.242;2023-02-12T09:37:46;37.75;;;11.05;;
69334;SDS011;56477;52.742;15.242;2023-02-12T09:40:17;33.50;;;10.50;;
69334;SDS011;56477;52.742;15.242;2023-02-12T09:42:52;32.58;;;10.68;;
69334;SDS011;56477;52.742;15.242;2023-02-12T09:45:34;38.40;;;11.20;;
69334;SDS011;56477;52.742;15.242;2023-02-12T09:50:45;29.45;;;10.35;;
69334;SDS011;56477;52.742;15.242;2023-02-12T09:53:24;38.58;;;11.55;;
69334;SDS011;56477;52.742;15.242;2023-02-12T09:55:54;40.30;;;12.10;;
69334;SDS011;56477;52.742;15.242;2023-02-12T09:58:31;36.00;;;9.97;;
69334;SDS011;56477;52.742;15.242;2023-02-12T10:01:00;36.72;;;10.10;;
69334;SDS011;56477;52.742;15.242;2023-02-12T10:03:34;31.48;;;10.80;;
69334;SDS011;56477;52.742;15.242;2023-02-12T10:06:02;30.25;;;10.32;;
69334;SDS011;56477;52.742;15.242;2023-02-12T10:11:32;22.27;;;7.20;;
69334;SDS011;56477;52.742;15.242;2023-02-12T10:17:02;35.20;;;11.95;;
69334;SDS011;56477;52.742;15.242;2023-02-12T10:19:47;31.60;;;9.07;;
69334;SDS011;56477;52.742;15.242;2023-02-12T10:28:15;30.42;;;9.65;;
69334;SDS011;56477;52.742;15.242;2023-02-12T10:30:51;31.63;;;11.63;;
69334;SDS011;56477;52.742;15.242;2023-02-12T10:36:41;30.27;;;9.97;;
69334;SDS011;56477;52.742;15.242;2023-02-12T10:41:43;30.85;;;10.32;;
69334;SDS011;56477;52.742;15.242;2023-02-12T10:44:14;26.08;;;7.93;;
69334;SDS011;56477;52.742;15.242;2023-02-12T10:46:40;29.63;;;9.88;;
69334;SDS011;56477;52.742;15.242;2023-02-12T10:49:06;32.47;;;10.97;;
69334;SDS011;56477;52.742;15.242;2023-02-12T10:51:42;30.25;;;9.55;;
69334;SDS011;56477;52.742;15.242;2023-02-12T10:57:20;28.90;;;8.13;;
69334;SDS011;56477;52.742;15.242;2023-02-12T10:59:50;25.08;;;6.25;;
69334;SDS011;56477;52.742;15.242;2023-02-12T11:04:50;17.40;;;5.15;;
69334;SDS011;56477;52.742;15.242;2023-02-12T11:07:19;26.88;;;6.38;;
69334;SDS011;56477;52.742;15.242;2023-02-12T11:09:46;20.65;;;5.05;;
69334;SDS011;56477;52.742;15.242;2023-02-12T11:15:12;20.87;;;4.73;;
69334;SDS011;56477;52.742;15.242;2023-02-12T11:17:40;27.70;;;5.88;;
69334;SDS011;56477;52.742;15.242;2023-02-12T11:22:53;14.90;;;2.83;;
69334;SDS011;56477;52.742;15.242;2023-02-12T11:25:26;16.83;;;3.22;;
69334;SDS011;56477;52.742;15.242;2023-02-12T11:28:36;14.73;;;3.20;;
69334;SDS011;56477;52.742;15.242;2023-02-12T11:35:58;16.95;;;4.60;;
69334;SDS011;56477;52.742;15.242;2023-02-12T11:38:32;19.88;;;3.42;;
69334;SDS011;56477;52.742;15.242;2023-02-12T11:41:06;12.77;;;3.43;;
69334;SDS011;56477;52.742;15.242;2023-02-12T11:43:53;22.85;;;4.45;;
69334;SDS011;56477;52.742;15.242;2023-02-12T11:46:20;10.85;;;3.58;;
69334;SDS011;56477;52.742;15.242;2023-02-12T11:48:50;23.10;;;5.95;;
69334;SDS011;56477;52.742;15.242;2023-02-12T11:51:19;23.67;;;5.32;;
69334;SDS011;56477;52.742;15.242;2023-02-12T11:53:48;15.27;;;3.90;;
69334;SDS011;56477;52.742;15.242;2023-02-12T11:56:17;21.02;;;5.53;;
69334;SDS011;56477;52.742;15.242;2023-02-12T11:58:44;22.77;;;6.95;;
69334;SDS011;56477;52.742;15.242;2023-02-12T12:01:24;29.33;;;7.82;;
69334;SDS011;56477;52.742;15.242;2023-02-12T12:14:39;13.13;;;4.07;;
69334;SDS011;56477;52.742;15.242;2023-02-12T12:17:48;18.80;;;4.95;;
69334;SDS011;56477;52.742;15.242;2023-02-12T12:20:35;26.67;;;6.30;;
69334;SDS011;56477;52.742;15.242;2023-02-12T12:28:31;18.27;;;4.53;;
69334;SDS011;56477;52.742;15.242;2023-02-12T12:33:50;16.27;;;4.27;;
69334;SDS011;56477;52.742;15.242;2023-02-12T12:36:32;21.20;;;5.40;;
69334;SDS011;56477;52.742;15.242;2023-02-12T12:53:19;35.17;;;9.68;;
69334;SDS011;56477;52.742;15.242;2023-02-12T13:14:57;45.20;;;10.67;;
69334;SDS011;56477;52.742;15.242;2023-02-12T13:17:56;21.65;;;6.15;;
69334;SDS011;56477;52.742;15.242;2023-02-12T13:25:57;21.75;;;5.88;;
69334;SDS011;56477;52.742;15.242;2023-02-12T13:28:37;50.23;;;10.83;;
69334;SDS011;56477;52.742;15.242;2023-02-12T13:31:11;26.45;;;6.38;;
69334;SDS011;56477;52.742;15.242;2023-02-12T13:33:46;47.92;;;9.48;;
69334;SDS011;56477;52.742;15.242;2023-02-12T13:36:20;28.42;;;5.03;;
69334;SDS011;56477;52.742;15.242;2023-02-12T13:41:21;18.83;;;6.63;;
69334;SDS011;56477;52.742;15.242;2023-02-12T13:44:07;21.77;;;5.22;;
69334;SDS011;56477;52.742;15.242;2023-02-12T13:46:55;26.42;;;5.93;;
69334;SDS011;56477;52.742;15.242;2023-02-12T13:52:07;28.70;;;7.22;;
69334;SDS011;56477;52.742;15.242;2023-02-12T13:54:55;10.23;;;3.37;;
69334;SDS011;56477;52.742;15.242;2023-02-12T13:57:35;30.85;;;8.30;;
69334;SDS011;56477;52.742;15.242;2023-02-12T14:00:01;27.40;;;7.18;;
69334;SDS011;56477;52.742;15.242;2023-02-12T14:07:48;26.75;;;6.43;;
69334;SDS011;56477;52.742;15.242;2023-02-12T14:10:22;11.60;;;3.92;;
69334;SDS011;56477;52.742;15.242;2023-02-12T14:12:57;17.38;;;4.28;;
69334;SDS011;56477;52.742;15.242;2023-02-12T14:15:40;19.13;;;5.87;;
69334;SDS011;56477;52.742;15.242;2023-02-12T14:23:40;32.65;;;8.18;;
69334;SDS011;56477;52.742;15.242;2023-02-12T14:26:10;29.20;;;6.97;;
69334;SDS011;56477;52.742;15.242;2023-02-12T14:31:31;23.67;;;8.68;;
69334;SDS011;56477;52.742;15.242;2023-02-12T14:41:37;13.20;;;4.17;;
69334;SDS011;56477;52.742;15.242;2023-02-12T14:54:45;22.27;;;7.87;;
69334;SDS011;56477;52.742;15.242;2023-02-12T14:57:31;19.52;;;5.63;;
69334;SDS011;56477;52.742;15.242;2023-02-12T15:02:41;25.65;;;8.23;;
69334;SDS011;56477;52.742;15.242;2023-02-12T15:08:10;11.17;;;4.17;;
69334;SDS011;56477;52.742;15.242;2023-02-12T15:10:51;29.15;;;8.15;;
69334;SDS011;56477;52.742;15.242;2023-02-12T15:19:01;29.92;;;9.10;;
69334;SDS011;56477;52.742;15.242;2023-02-12T15:21:37;13.20;;;4.00;;
69334;SDS011;56477;52.742;15.242;2023-02-12T15:24:04;22.60;;;7.22;;
69334;SDS011;56477;52.742;15.242;2023-02-12T15:26:38;19.45;;;6.68;;
69334;SDS011;56477;52.742;15.242;2023-02-12T15:29:14;17.27;;;5.60;;
69334;SDS011;56477;52.742;15.242;2023-02-12T15:31:50;20.88;;;7.03;;
69334;SDS011;56477;52.742;15.242;2023-02-12T15:34:19;21.27;;;8.73;;
69334;SDS011;56477;52.742;15.242;2023-02-12T15:36:47;23.38;;;7.95;;
69334;SDS011;56477;52.742;15.242;2023-02-12T15:39:14;26.83;;;9.35;;
69334;SDS011;56477;52.742;15.242;2023-02-12T15:41:43;20.38;;;7.63;;
69334;SDS011;56477;52.742;15.242;2023-02-12T15:44:20;24.70;;;9.45;;
69334;SDS011;56477;52.742;15.242;2023-02-12T15:46:53;23.77;;;9.13;;
69334;SDS011;56477;52.742;15.242;2023-02-12T15:49:23;18.95;;;7.75;;
69334;SDS011;56477;52.742;15.242;2023-02-12T15:52:19;17.90;;;7.50;;
69334;SDS011;56477;52.742;15.242;2023-02-12T15:54:49;17.15;;;7.93;;
69334;SDS011;56477;52.742;15.242;2023-02-12T15:57:20;19.92;;;7.15;;
69334;SDS011;56477;52.742;15.242;2023-02-12T15:59:51;17.60;;;6.43;;
69334;SDS011;56477;52.742;15.242;2023-02-12T16:02:20;24.67;;;9.73;;
69334;SDS011;56477;52.742;15.242;2023-02-12T16:04:50;28.20;;;11.05;;
69334;SDS011;56477;52.742;15.242;2023-02-12T16:07:16;25.48;;;10.18;;
69334;SDS011;56477;52.742;15.242;2023-02-12T16:09:43;16.65;;;5.20;;
69334;SDS011;56477;52.742;15.242;2023-02-12T16:12:11;26.23;;;11.33;;
69334;SDS011;56477;52.742;15.242;2023-02-12T16:14:41;27.73;;;11.18;;
69334;SDS011;56477;52.742;15.242;2023-02-12T16:17:27;29.70;;;11.95;;
69334;SDS011;56477;52.742;15.242;2023-02-12T16:19:57;26.70;;;11.20;;
69334;SDS011;56477;52.742;15.242;2023-02-12T16:22:30;28.98;;;12.27;;
69334;SDS011;56477;52.742;15.242;2023-02-12T16:25:14;25.60;;;10.43;;
69334;SDS011;56477;52.742;15.242;2023-02-12T16:27:48;27.90;;;11.60;;
69334;SDS011;56477;52.742;15.242;2023-02-12T16:32:48;34.38;;;13.18;;
69334;SDS011;56477;52.742;15.242;2023-02-12T16:37:45;29.77;;;13.17;;
69334;SDS011;56477;52.742;15.242;2023-02-12T16:47:52;30.30;;;12.23;;
69334;SDS011;56477;52.742;15.242;2023-02-12T16:50:21;19.63;;;8.37;;
69334;SDS011;56477;52.742;15.242;2023-02-12T16:52:52;25.08;;;11.48;;
69334;SDS011;56477;52.742;15.242;2023-02-12T16:55:25;34.80;;;13.25;;
69334;SDS011;56477;52.742;15.242;2023-02-12T16:57:52;32.92;;;13.38;;
69334;SDS011;56477;52.742;15.242;2023-02-12T17:00:17;31.77;;;12.90;;
69334;SDS011;56477;52.742;15.242;2023-02-12T17:02:44;31.92;;;13.20;;
69334;SDS011;56477;52.742;15.242;2023-02-12T17:05:12;30.15;;;12.35;;
69334;SDS011;56477;52.742;15.242;2023-02-12T17:07:41;30.85;;;12.35;;
69334;SDS011;56477;52.742;15.242;2023-02-12T17:10:14;20.52;;;8.45;;
69334;SDS011;56477;52.742;15.242;2023-02-12T17:12:45;30.83;;;13.33;;
69334;SDS011;56477;52.742;15.242;2023-02-12T17:15:19;21.58;;;8.02;;
69334;SDS011;56477;52.742;15.242;2023-02-12T17:17:49;29.10;;;11.93;;
69334;SDS011;56477;52.742;15.242;2023-02-12T17:20:15;23.42;;;9.50;;
69334;SDS011;56477;52.742;15.242;2023-02-12T17:22:44;24.45;;;10.30;;
69334;SDS011;56477;52.742;15.242;2023-02-12T17:25:14;20.70;;;7.17;;
69334;SDS011;56477;52.742;15.242;2023-02-12T17:27:40;28.38;;;10.98;;
69334;SDS011;56477;52.742;15.242;2023-02-12T17:30:06;20.13;;;8.57;;
69334;SDS011;56477;52.742;15.242;2023-02-12T17:32:33;27.80;;;11.65;;
69334;SDS011;56477;52.742;15.242;2023-02-12T17:34:59;27.40;;;11.57;;
69334;SDS011;56477;52.742;15.242;2023-02-12T17:37:25;32.05;;;12.68;;
69334;SDS011;56477;52.742;15.242;2023-02-12T17:39:51;25.85;;;9.77;;
69334;SDS011;56477;52.742;15.242;2023-02-12T17:42:17;22.35;;;8.63;;
69334;SDS011;56477;52.742;15.242;2023-02-12T17:44:43;24.40;;;11.20;;
69334;SDS011;56477;52.742;15.242;2023-02-12T17:47:17;25.30;;;8.80;;
69334;SDS011;56477;52.742;15.242;2023-02-12T17:49:43;25.15;;;10.00;;
69334;SDS011;56477;52.742;15.242;2023-02-12T17:52:09;15.50;;;7.15;;
69334;SDS011;56477;52.742;15.242;2023-02-12T17:54:35;13.53;;;5.60;;
69334;SDS011;56477;52.742;15.242;2023-02-12T17:57:02;12.65;;;4.28;;
69334;SDS011;56477;52.742;15.242;2023-02-12T17:59:28;9.23;;;2.03;;
69334;SDS011;56477;52.742;15.242;2023-02-12T18:01:54;12.48;;;3.50;;
69334;SDS011;56477;52.742;15.242;2023-02-12T18:04:20;14.80;;;3.75;;
69334;SDS011;56477;52.742;15.242;2023-02-12T18:06:46;6.97;;;3.27;;